Time;durP1;ratioP1;P1;durP2;ratioP2;P2;SDS_P1;SDS_P2;PMS_P1;PMS_P2;Temp;Humidity;BMP_temperature;BMP_pressure;BME280_temperature;BME280_humidity;BME280_pressure;Samples;Min_cycle;Max_cycle;Signal;HPM_P1;HPM_P2
2021/12/21 00:00:12;;;;;;;10.98;8.25;;;;;;;;;;5094113;28;20049;-79
2021/12/21 00:02:37;;;;;;;16.00;8.23;;;;;;;;;;5095749;28;20401;-78
2021/12/21 00:05:03;;;;;;;10.35;6.63;;;;;;;;;;5094047;28;20450;-78
2021/12/21 00:07:28;;;;;;;9.00;6.72;;;;;;;;;;5094131;28;20023;-78
2021/12/21 00:09:53;;;;;;;10.05;5.78;;;;;;;;;;5095189;28;20051;-79
2021/12/21 00:12:22;;;;;;;9.38;6.43;;;;;;;;;;5093777;28;20431;-78
2021/12/21 00:14:59;;;;;;;16.60;8.10;;;;;;;;;;5095721;28;20066;-79
2021/12/21 00:20:22;;;;;;;14.23;6.22;;;;;;;;;;5095392;28;20108;-78
2021/12/21 00:25:16;;;;;;;10.85;6.90;;;;;;;;;;5094938;28;20077;-78
2021/12/21 00:27:42;;;;;;;16.13;9.52;;;;;;;;;;5094239;28;20351;-76
2021/12/21 00:30:07;;;;;;;17.05;8.35;;;;;;;;;;5093536;28;20202;-78
2021/12/21 00:32:33;;;;;;;19.45;8.60;;;;;;;;;;5097448;28;20031;-79
2021/12/21 00:34:58;;;;;;;13.77;8.32;;;;;;;;;;5098284;28;20027;-78
2021/12/21 00:37:27;;;;;;;13.43;6.28;;;;;;;;;;5097897;28;20027;-78
2021/12/21 00:39:52;;;;;;;14.95;8.57;;;;;;;;;;5099385;28;21074;-79
2021/12/21 00:42:17;;;;;;;9.88;5.20;;;;;;;;;;5098217;28;20392;-78
2021/12/21 00:44:43;;;;;;;9.00;5.75;;;;;;;;;;5098035;28;20450;-78
2021/12/21 00:47:08;;;;;;;14.43;6.75;;;;;;;;;;5097648;28;20015;-77
2021/12/21 00:49:35;;;;;;;11.70;6.80;;;;;;;;;;5097462;28;20065;-77
2021/12/21 00:52:00;;;;;;;13.75;7.68;;;;;;;;;;5098930;28;20020;-77
2021/12/21 00:54:26;;;;;;;14.77;7.20;;;;;;;;;;5096809;28;20077;-80
2021/12/21 00:56:51;;;;;;;25.15;12.95;;;;;;;;;;5099101;28;20027;-78
2021/12/21 00:59:17;;;;;;;5.93;3.85;;;;;;;;;;5097519;28;20024;-77
2021/12/21 01:01:42;;;;;;;7.70;4.80;;;;;;;;;;5096770;28;20023;-76
2021/12/21 01:04:15;;;;;;;8.75;5.35;;;;;;;;;;5098883;28;20439;-78
2021/12/21 01:06:57;;;;;;;8.98;5.28;;;;;;;;;;5097160;28;20068;-78
2021/12/21 01:11:55;;;;;;;11.77;5.43;;;;;;;;;;5098288;28;20046;-78
2021/12/21 01:17:13;;;;;;;7.40;4.30;;;;;;;;;;5098557;28;20139;-79
2021/12/21 01:19:59;;;;;;;16.17;7.88;;;;;;;;;;5099058;28;20622;-77
2021/12/21 01:23:09;;;;;;;13.35;6.28;;;;;;;;;;5097902;27;20015;-78
2021/12/21 01:25:33;;;;;;;6.90;4.10;;;;;;;;;;5097913;28;20115;-78
2021/12/21 01:35:31;;;;;;;9.52;5.40;;;;;;;;;;5098056;28;20036;-78
2021/12/21 01:38:04;;;;;;;5.25;4.05;;;;;;;;;;5098362;28;20020;-77
2021/12/21 01:51:13;;;;;;;9.60;5.32;;;;;;;;;;5097485;28;20038;-77
2021/12/21 01:53:39;;;;;;;20.40;9.32;;;;;;;;;;5098323;28;20020;-78
2021/12/21 01:56:06;;;;;;;29.10;12.18;;;;;;;;;;5095768;28;20414;-76
2021/12/21 01:58:33;;;;;;;20.00;10.15;;;;;;;;;;5098607;28;20027;-78
2021/12/21 02:00:59;;;;;;;20.13;10.38;;;;;;;;;;5096424;28;20024;-78
2021/12/21 02:03:24;;;;;;;17.45;8.77;;;;;;;;;;5097435;28;20019;-77
2021/12/21 02:05:50;;;;;;;14.55;7.70;;;;;;;;;;5097580;28;20065;-78
2021/12/21 02:08:16;;;;;;;18.45;9.95;;;;;;;;;;5096126;28;20397;-77
2021/12/21 02:10:41;;;;;;;15.45;9.88;;;;;;;;;;5095507;28;20103;-77
2021/12/21 02:13:07;;;;;;;6.18;4.28;;;;;;;;;;5097262;28;20107;-77
2021/12/21 02:15:32;;;;;;;6.30;4.93;;;;;;;;;;5095767;28;20020;-78
2021/12/21 02:23:22;;;;;;;8.73;5.25;;;;;;;;;;5097490;28;20149;-78
2021/12/21 02:26:47;;;;;;;5.32;4.80;;;;;;;;;;5096186;28;20417;-77
2021/12/21 02:31:07;;;;;;;11.85;5.68;;;;;;;;;;5096752;28;20035;-78
2021/12/21 02:33:34;;;;;;;9.52;6.47;;;;;;;;;;5095286;28;20468;-79
2021/12/21 02:35:59;;;;;;;11.90;6.97;;;;;;;;;;5097630;28;20067;-78
2021/12/21 02:38:28;;;;;;;14.65;8.00;;;;;;;;;;5095114;28;20019;-78
2021/12/21 02:40:54;;;;;;;16.58;8.45;;;;;;;;;;5095313;28;20035;-77
2021/12/21 02:43:19;;;;;;;24.17;10.82;;;;;;;;;;5095199;28;20307;-78
2021/12/21 02:45:44;;;;;;;15.52;8.38;;;;;;;;;;5094976;28;20043;-79
2021/12/21 02:48:10;;;;;;;24.48;11.98;;;;;;;;;;5097174;28;20054;-79
2021/12/21 02:50:36;;;;;;;19.35;11.25;;;;;;;;;;5095483;28;20351;-77
2021/12/21 02:53:02;;;;;;;19.95;11.13;;;;;;;;;;5094991;28;20035;-78
2021/12/21 02:55:28;;;;;;;19.58;10.57;;;;;;;;;;5094312;28;20118;-77
2021/12/21 02:57:53;;;;;;;19.50;8.95;;;;;;;;;;5095060;28;20043;-78
2021/12/21 03:00:19;;;;;;;12.48;8.20;;;;;;;;;;5094854;28;20023;-77
2021/12/21 03:02:44;;;;;;;17.70;8.68;;;;;;;;;;5097561;28;20054;-77
2021/12/21 03:05:10;;;;;;;20.17;8.77;;;;;;;;;;5096902;28;20466;-78
2021/12/21 03:10:23;;;;;;;19.40;10.20;;;;;;;;;;5096110;28;20444;-77
2021/12/21 03:15:16;;;;;;;20.65;10.07;;;;;;;;;;5096568;28;20047;-78
2021/12/21 03:17:42;;;;;;;22.65;10.82;;;;;;;;;;5094677;28;20023;-78
2021/12/21 03:20:07;;;;;;;14.85;9.07;;;;;;;;;;5095673;28;20024;-78
2021/12/21 03:22:32;;;;;;;16.67;8.95;;;;;;;;;;5094944;28;20126;-78
2021/12/21 03:24:58;;;;;;;7.90;5.00;;;;;;;;;;5096169;28;20022;-77
2021/12/21 03:27:23;;;;;;;12.80;6.32;;;;;;;;;;5094488;28;20336;-79
2021/12/21 03:29:49;;;;;;;12.27;6.60;;;;;;;;;;5094439;28;20112;-78
2021/12/21 03:32:14;;;;;;;9.23;6.22;;;;;;;;;;5094614;28;20078;-77
2021/12/21 03:34:39;;;;;;;10.52;7.35;;;;;;;;;;5096834;28;20020;-79
2021/12/21 03:37:11;;;;;;;13.45;7.88;;;;;;;;;;5095692;28;20051;-77
2021/12/21 03:39:36;;;;;;;15.45;8.10;;;;;;;;;;5094937;28;20054;-78
2021/12/21 03:42:02;;;;;;;16.45;7.70;;;;;;;;;;5094115;28;20046;-78
2021/12/21 03:44:28;;;;;;;8.90;5.90;;;;;;;;;;5094037;28;20020;-78
2021/12/21 03:46:55;;;;;;;12.10;6.60;;;;;;;;;;5094228;28;20443;-79
2021/12/21 03:51:56;;;;;;;12.98;7.47;;;;;;;;;;5096033;28;20384;-77
2021/12/21 03:54:22;;;;;;;13.00;6.25;;;;;;;;;;5095851;28;20023;-77
2021/12/21 03:56:50;;;;;;;9.15;6.03;;;;;;;;;;5093660;28;20028;-78
2021/12/21 03:59:15;;;;;;;9.25;5.90;;;;;;;;;;5094257;28;20551;-78
2021/12/21 04:01:41;;;;;;;11.32;6.57;;;;;;;;;;5093967;28;20241;-78
2021/12/21 04:04:08;;;;;;;15.73;8.07;;;;;;;;;;5096682;28;20027;-78
2021/12/21 04:06:33;;;;;;;10.48;6.43;;;;;;;;;;5093634;28;20057;-79
2021/12/21 04:08:58;;;;;;;7.38;4.47;;;;;;;;;;5095521;28;20366;-78
2021/12/21 04:11:24;;;;;;;9.25;5.78;;;;;;;;;;5093729;28;20055;-77
2021/12/21 04:13:49;;;;;;;13.48;7.65;;;;;;;;;;5095002;28;20034;-78
2021/12/21 04:16:14;;;;;;;18.17;8.80;;;;;;;;;;5093501;28;20077;-77
2021/12/21 04:18:40;;;;;;;9.95;6.65;;;;;;;;;;5093667;28;20023;-77
2021/12/21 04:21:09;;;;;;;15.77;8.60;;;;;;;;;;5094163;28;20030;-78
2021/12/21 04:23:34;;;;;;;10.23;6.72;;;;;;;;;;5094964;28;20007;-78
2021/12/21 04:25:59;;;;;;;9.68;6.30;;;;;;;;;;5094013;28;20031;-79
2021/12/21 04:28:25;;;;;;;11.60;6.90;;;;;;;;;;5094223;28;20016;-77
2021/12/21 04:30:50;;;;;;;10.60;7.32;;;;;;;;;;5093925;28;20036;-78
2021/12/21 04:33:15;;;;;;;11.23;6.47;;;;;;;;;;5095767;28;20023;-76
2021/12/21 04:35:41;;;;;;;10.80;6.97;;;;;;;;;;5095510;28;20043;-77
2021/12/21 04:38:42;;;;;;;11.60;7.20;;;;;;;;;;5094835;28;20016;-78
2021/12/21 04:41:07;;;;;;;8.45;5.72;;;;;;;;;;5092743;28;20359;-78
2021/12/21 04:43:32;;;;;;;13.70;6.97;;;;;;;;;;5094187;28;20054;-78
2021/12/21 04:45:58;;;;;;;11.23;7.40;;;;;;;;;;5093286;28;20047;-78
2021/12/21 04:48:23;;;;;;;13.18;7.82;;;;;;;;;;5094217;28;20373;-78
2021/12/21 04:50:49;;;;;;;13.25;8.13;;;;;;;;;;5093640;28;20023;-78
2021/12/21 04:53:14;;;;;;;12.07;7.88;;;;;;;;;;5093702;28;20495;-77
2021/12/21 04:55:39;;;;;;;12.80;7.18;;;;;;;;;;5093579;28;20030;-77
2021/12/21 04:58:05;;;;;;;14.30;9.40;;;;;;;;;;5092890;28;20022;-77
2021/12/21 05:00:31;;;;;;;17.63;11.15;;;;;;;;;;5095874;28;20047;-77
2021/12/21 05:02:57;;;;;;;21.17;11.35;;;;;;;;;;5095386;28;20015;-76
2021/12/21 05:05:23;;;;;;;20.48;11.50;;;;;;;;;;5094697;28;20747;-77
2021/12/21 05:07:53;;;;;;;33.58;18.63;;;;;;;;;;5093608;28;20043;-77
2021/12/21 05:10:19;;;;;;;39.03;23.02;;;;;;;;;;5093342;28;20530;-78
2021/12/21 05:12:45;;;;;;;36.58;21.02;;;;;;;;;;5093256;28;20408;-78
2021/12/21 05:15:11;;;;;;;24.05;14.20;;;;;;;;;;5095274;28;20024;-78
2021/12/21 05:17:36;;;;;;;72.53;37.50;;;;;;;;;;5093982;28;20023;-78
2021/12/21 05:20:02;;;;;;;52.70;25.55;;;;;;;;;;5097649;28;20050;-78
2021/12/21 05:22:27;;;;;;;41.53;26.30;;;;;;;;;;5097415;28;20019;-77
2021/12/21 05:24:52;;;;;;;81.97;32.85;;;;;;;;;;5096823;28;20073;-77
2021/12/21 05:27:18;;;;;;;39.58;23.58;;;;;;;;;;5088542;28;20015;-77
2021/12/21 05:29:43;;;;;;;22.65;11.88;;;;;;;;;;5078885;28;20058;-78
2021/12/21 05:32:09;;;;;;;14.07;8.63;;;;;;;;;;5077699;28;20446;-78
2021/12/21 05:34:34;;;;;;;9.05;7.35;;;;;;;;;;5077713;28;20028;-77
2021/12/21 05:38:39;;;;;;;9.55;7.78;;;;;;;;;;5113978;27;20122;-78
2021/12/21 05:41:11;;;;;;;342.60;193.85;;;;;;;;;;5092195;28;20062;-79
2021/12/21 05:43:36;;;;;;;120.70;66.00;;;;;;;;;;5091252;28;20024;-77
2021/12/21 05:46:02;;;;;;;32.78;19.75;;;;;;;;;;5092507;28;20092;-78
2021/12/21 05:48:27;;;;;;;30.38;18.33;;;;;;;;;;5090221;28;20026;-79
2021/12/21 05:50:53;;;;;;;15.20;10.98;;;;;;;;;;5091357;28;20111;-79
2021/12/21 05:53:18;;;;;;;91.82;42.88;;;;;;;;;;5093257;28;20023;-77
2021/12/21 05:55:43;;;;;;;33.92;17.85;;;;;;;;;;5092924;28;20028;-78
2021/12/21 05:58:09;;;;;;;15.50;10.55;;;;;;;;;;5090658;28;20027;-78
2021/12/21 06:00:34;;;;;;;14.38;9.90;;;;;;;;;;5090172;28;20028;-78
2021/12/21 06:03:00;;;;;;;11.57;6.82;;;;;;;;;;5090352;28;20443;-79
2021/12/21 06:05:26;;;;;;;6.95;4.35;;;;;;;;;;5090670;28;20074;-78
2021/12/21 06:07:53;;;;;;;34.70;21.38;;;;;;;;;;5090620;28;20030;-78
2021/12/21 06:10:27;;;;;;;43.42;23.77;;;;;;;;;;5093757;28;20028;-77
2021/12/21 06:26:02;;;;;;;31.60;20.83;;;;;;;;;;5091927;28;20027;-78
2021/12/21 06:28:28;;;;;;;25.13;16.30;;;;;;;;;;5092055;28;20481;-79
2021/12/21 06:30:53;;;;;;;16.05;10.57;;;;;;;;;;5091847;28;20016;-79
2021/12/21 06:33:19;;;;;;;15.23;11.05;;;;;;;;;;5090077;28;20447;-78
2021/12/21 06:35:44;;;;;;;44.85;24.45;;;;;;;;;;5091350;28;20016;-78
2021/12/21 06:38:10;;;;;;;70.88;32.85;;;;;;;;;;5091955;28;20126;-79
2021/12/21 06:40:36;;;;;;;108.28;48.40;;;;;;;;;;5090165;28;20489;-80
2021/12/21 06:43:03;;;;;;;100.47;43.85;;;;;;;;;;5091234;28;20020;-79
2021/12/21 06:51:15;;;;;;;102.95;59.78;;;;;;;;;;5077725;28;20482;-80
2021/12/21 06:53:42;;;;;;;43.83;24.95;;;;;;;;;;5077926;28;20017;-78
2021/12/21 06:56:08;;;;;;;60.88;31.95;;;;;;;;;;5078143;28;20020;-79
2021/12/21 06:58:34;;;;;;;43.03;24.13;;;;;;;;;;5077541;28;20032;-80
2021/12/21 07:01:00;;;;;;;31.20;18.48;;;;;;;;;;5074568;28;20069;-80
2021/12/21 07:03:26;;;;;;;17.73;11.10;;;;;;;;;;5075011;28;20026;-80
2021/12/21 07:05:51;;;;;;;18.60;12.25;;;;;;;;;;5075486;28;20431;-80
2021/12/21 07:08:22;;;;;;;17.88;10.48;;;;;;;;;;5076125;28;20447;-79
2021/12/21 07:11:15;;;;;;;13.27;9.18;;;;;;;;;;5075751;28;20439;-78
2021/12/21 07:19:03;;;;;;;25.85;16.85;;;;;;;;;;5077267;28;20128;-80
2021/12/21 07:21:29;;;;;;;12.48;8.82;;;;;;;;;;5074243;28;20437;-79
2021/12/21 07:23:54;;;;;;;13.68;9.73;;;;;;;;;;5076511;28;20012;-78
2021/12/21 07:26:20;;;;;;;16.67;11.50;;;;;;;;;;5076285;28;20016;-79
2021/12/21 07:28:45;;;;;;;16.30;13.13;;;;;;;;;;5075272;28;20016;-80
2021/12/21 07:31:10;;;;;;;13.02;9.82;;;;;;;;;;5075594;28;20016;-80
2021/12/21 07:33:36;;;;;;;35.75;23.67;;;;;;;;;;5075350;28;20481;-77
2021/12/21 07:36:01;;;;;;;28.20;18.95;;;;;;;;;;5076989;28;20046;-80
2021/12/21 07:38:30;;;;;;;15.95;10.90;;;;;;;;;;5075455;28;20486;-80
2021/12/21 07:40:56;;;;;;;17.33;11.20;;;;;;;;;;5070744;28;20096;-78
2021/12/21 07:43:21;;;;;;;18.45;11.68;;;;;;;;;;5056856;28;20100;-79
2021/12/21 07:45:46;;;;;;;17.63;13.43;;;;;;;;;;5057836;28;20044;-78
2021/12/21 07:48:12;;;;;;;33.83;19.35;;;;;;;;;;5055558;28;20451;-79
2021/12/21 07:50:38;;;;;;;37.92;19.75;;;;;;;;;;5055727;28;20020;-79
2021/12/21 07:53:03;;;;;;;41.17;20.77;;;;;;;;;;5055113;28;20448;-80
2021/12/21 07:55:28;;;;;;;34.75;18.45;;;;;;;;;;5054940;28;20016;-79
2021/12/21 07:57:54;;;;;;;13.35;8.68;;;;;;;;;;5056692;28;20025;-80
2021/12/21 08:00:21;;;;;;;35.03;20.33;;;;;;;;;;5053780;28;20701;-80
2021/12/21 08:02:47;;;;;;;30.27;17.10;;;;;;;;;;5055334;28;20016;-80
2021/12/21 08:05:12;;;;;;;45.33;24.25;;;;;;;;;;5055847;28;20116;-78
2021/12/21 08:07:49;;;;;;;66.97;30.08;;;;;;;;;;5054556;28;20518;-79
2021/12/21 08:10:30;;;;;;;42.60;20.95;;;;;;;;;;5054950;28;20112;-79
2021/12/21 08:12:56;;;;;;;49.15;28.85;;;;;;;;;;5056345;28;20017;-78
2021/12/21 08:15:23;;;;;;;37.05;21.00;;;;;;;;;;5054554;28;20035;-78
2021/12/21 08:17:48;;;;;;;28.38;16.58;;;;;;;;;;5055053;28;20356;-77
2021/12/21 08:20:13;;;;;;;66.03;31.67;;;;;;;;;;5054356;28;20032;-79
2021/12/21 08:22:39;;;;;;;43.53;23.63;;;;;;;;;;5054400;28;20024;-79
2021/12/21 08:25:06;;;;;;;40.80;22.90;;;;;;;;;;5054583;28;20021;-78
2021/12/21 08:27:32;;;;;;;36.17;22.77;;;;;;;;;;5054827;28;20024;-81
2021/12/21 08:29:57;;;;;;;30.75;18.13;;;;;;;;;;5054093;28;20016;-79
2021/12/21 08:32:22;;;;;;;29.73;19.40;;;;;;;;;;5056137;28;20012;-80
2021/12/21 08:34:48;;;;;;;28.40;16.35;;;;;;;;;;5056271;28;20020;-79
2021/12/21 08:37:13;;;;;;;27.40;15.68;;;;;;;;;;5054335;28;20465;-79
2021/12/21 08:39:39;;;;;;;57.90;33.35;;;;;;;;;;5054442;28;20017;-79
2021/12/21 08:42:12;;;;;;;52.60;29.88;;;;;;;;;;5053880;28;20027;-79
2021/12/21 08:44:37;;;;;;;33.67;19.45;;;;;;;;;;5055938;28;20024;-78
2021/12/21 08:47:03;;;;;;;30.30;17.52;;;;;;;;;;5056395;28;20090;-79
2021/12/21 08:49:29;;;;;;;32.17;18.80;;;;;;;;;;5053928;28;20116;-78
2021/12/21 08:51:55;;;;;;;48.78;27.08;;;;;;;;;;5053949;28;20111;-79
2021/12/21 08:54:21;;;;;;;31.88;18.65;;;;;;;;;;5055478;28;20517;-79
2021/12/21 08:56:48;;;;;;;25.75;15.23;;;;;;;;;;5054090;28;20020;-80
2021/12/21 08:59:15;;;;;;;48.08;27.92;;;;;;;;;;5053782;28;20123;-79
2021/12/21 09:01:40;;;;;;;25.05;15.90;;;;;;;;;;5064957;28;20042;-79
2021/12/21 09:04:06;;;;;;;37.38;21.50;;;;;;;;;;5054985;28;20021;-79
2021/12/21 09:06:31;;;;;;;32.05;17.60;;;;;;;;;;5055302;28;20531;-79
2021/12/21 09:08:57;;;;;;;71.72;37.10;;;;;;;;;;5058718;28;20012;-76
2021/12/21 09:11:22;;;;;;;110.88;51.88;;;;;;;;;;5054719;28;20055;-76
2021/12/21 09:13:47;;;;;;;93.68;45.42;;;;;;;;;;5054856;28;20016;-78
2021/12/21 09:16:13;;;;;;;38.13;21.83;;;;;;;;;;5055488;28;20091;-77
2021/12/21 09:18:38;;;;;;;31.33;18.00;;;;;;;;;;5055818;28;20107;-79
2021/12/21 09:21:03;;;;;;;27.60;14.27;;;;;;;;;;5055479;28;20390;-79
2021/12/21 09:23:29;;;;;;;19.58;12.25;;;;;;;;;;5053711;28;20489;-77
2021/12/21 09:25:54;;;;;;;16.35;12.73;;;;;;;;;;5053374;28;20031;-77
2021/12/21 09:28:20;;;;;;;14.70;10.57;;;;;;;;;;5055381;28;20025;-78
2021/12/21 09:30:46;;;;;;;58.35;24.25;;;;;;;;;;5056026;28;20054;-77
2021/12/21 09:33:11;;;;;;;16.33;10.50;;;;;;;;;;5053435;28;20071;-78
2021/12/21 09:35:38;;;;;;;8.55;6.03;;;;;;;;;;5053692;28;20020;-78
2021/12/21 09:38:04;;;;;;;8.27;5.55;;;;;;;;;;5062946;28;20388;-77
2021/12/21 09:40:30;;;;;;;25.92;14.20;;;;;;;;;;5069405;28;20024;-77
2021/12/21 09:42:56;;;;;;;19.27;11.20;;;;;;;;;;5075857;28;20095;-78
2021/12/21 09:45:21;;;;;;;24.88;14.32;;;;;;;;;;5069528;28;20020;-77
2021/12/21 09:47:49;;;;;;;7.60;5.78;;;;;;;;;;5073364;28;20362;-78
2021/12/21 09:50:15;;;;;;;7.05;5.25;;;;;;;;;;5073330;28;20024;-78
2021/12/21 09:52:40;;;;;;;8.00;5.43;;;;;;;;;;5073177;28;20020;-78
2021/12/21 09:55:07;;;;;;;11.77;8.15;;;;;;;;;;5075017;28;20035;-78
2021/12/21 09:57:33;;;;;;;9.52;6.88;;;;;;;;;;5075248;28;20028;-78
2021/12/21 09:59:59;;;;;;;17.50;12.30;;;;;;;;;;5074695;28;20454;-78
2021/12/21 10:02:26;;;;;;;13.02;8.82;;;;;;;;;;5073432;28;20020;-78
2021/12/21 10:04:51;;;;;;;25.17;13.20;;;;;;;;;;5073653;28;20021;-78
2021/12/21 10:07:18;;;;;;;27.02;16.45;;;;;;;;;;5065722;28;20043;-78
2021/12/21 10:09:46;;;;;;;22.38;13.25;;;;;;;;;;5063004;28;20442;-78
2021/12/21 10:12:31;;;;;;;24.30;13.88;;;;;;;;;;5059839;28;20090;-76
2021/12/21 10:15:04;;;;;;;22.35;13.70;;;;;;;;;;5054457;28;20016;-79
2021/12/21 10:17:32;;;;;;;29.27;18.70;;;;;;;;;;5059489;28;20059;-77
2021/12/21 10:19:58;;;;;;;14.38;9.90;;;;;;;;;;5072969;28;20028;-78
2021/12/21 10:22:24;;;;;;;13.85;9.23;;;;;;;;;;5073435;28;20031;-78
2021/12/21 10:24:50;;;;;;;24.35;15.40;;;;;;;;;;5064198;28;20016;-78
2021/12/21 10:27:18;;;;;;;23.17;14.77;;;;;;;;;;5056240;28;20458;-79
2021/12/21 10:29:45;;;;;;;18.35;12.15;;;;;;;;;;5058312;28;20020;-80
2021/12/21 10:32:21;;;;;;;13.95;9.98;;;;;;;;;;5068247;28;20537;-79
2021/12/21 10:34:53;;;;;;;21.98;13.07;;;;;;;;;;5074887;28;20503;-80
2021/12/21 10:37:38;;;;;;;16.65;10.70;;;;;;;;;;5067968;28;20076;-80
2021/12/21 10:40:03;;;;;;;29.25;17.38;;;;;;;;;;5058620;28;20023;-78
2021/12/21 10:42:29;;;;;;;27.45;15.82;;;;;;;;;;5058486;28;20032;-78
2021/12/21 10:45:01;;;;;;;28.35;15.63;;;;;;;;;;5076705;28;20453;-79
2021/12/21 10:47:26;;;;;;;31.00;20.05;;;;;;;;;;5078408;28;20024;-76
2021/12/21 10:49:52;;;;;;;52.70;26.58;;;;;;;;;;5077488;28;20027;-78
2021/12/21 10:52:20;;;;;;;41.40;21.95;;;;;;;;;;5078436;28;20171;-78
2021/12/21 10:54:46;;;;;;;24.65;13.35;;;;;;;;;;5077966;28;20023;-78
2021/12/21 10:57:17;;;;;;;20.23;12.77;;;;;;;;;;5076441;28;20119;-77
2021/12/21 10:59:45;;;;;;;29.88;14.35;;;;;;;;;;5077858;28;20114;-79
2021/12/21 11:02:13;;;;;;;16.73;9.95;;;;;;;;;;5077435;28;20012;-79
2021/12/21 11:04:39;;;;;;;25.67;13.50;;;;;;;;;;5076541;28;20185;-77
2021/12/21 11:08:14;;;;;;;38.33;21.42;;;;;;;;;;5076869;28;20035;-79
2021/12/21 11:10:14;;;;;;;19.25;10.57;;;;;;;;;;5069506;28;20111;-77
2021/12/21 11:12:44;;;;;;;21.60;12.32;;;;;;;;;;5076106;28;20028;-78
2021/12/21 11:15:10;;;;;;;14.05;9.40;;;;;;;;;;5074893;28;20097;-77
2021/12/21 11:17:37;;;;;;;24.27;14.52;;;;;;;;;;5073950;28;20020;-79
2021/12/21 11:20:03;;;;;;;23.83;11.75;;;;;;;;;;5075191;28;20054;-78
2021/12/21 11:22:28;;;;;;;19.20;10.95;;;;;;;;;;5075948;28;20176;-78
2021/12/21 11:24:54;;;;;;;21.67;13.40;;;;;;;;;;5076994;28;20027;-79
2021/12/21 11:27:22;;;;;;;17.20;10.95;;;;;;;;;;5076278;28;20020;-76
2021/12/21 11:29:50;;;;;;;10.27;7.57;;;;;;;;;;5074708;28;20078;-78
2021/12/21 11:32:16;;;;;;;14.25;10.40;;;;;;;;;;5075909;28;20078;-78
2021/12/21 11:35:08;;;;;;;19.52;11.98;;;;;;;;;;5076029;28;20538;-78
2021/12/21 11:37:29;;;;;;;24.02;15.18;;;;;;;;;;5076590;28;20065;-78
2021/12/21 11:39:55;;;;;;;21.20;12.80;;;;;;;;;;5077798;28;20016;-78
2021/12/21 11:42:29;;;;;;;18.85;10.45;;;;;;;;;;5075437;28;20611;-78
2021/12/21 11:44:55;;;;;;;26.33;14.00;;;;;;;;;;5076824;28;20103;-79
2021/12/21 11:47:27;;;;;;;33.28;17.35;;;;;;;;;;5075784;28;20504;-78
2021/12/21 11:50:00;;;;;;;22.50;13.05;;;;;;;;;;5075293;28;20016;-77
2021/12/21 11:52:27;;;;;;;27.48;15.13;;;;;;;;;;5076867;28;20451;-78
2021/12/21 11:54:54;;;;;;;34.10;20.23;;;;;;;;;;5077714;28;20115;-78
2021/12/21 11:57:21;;;;;;;19.15;13.10;;;;;;;;;;5075043;28;20073;-79
2021/12/21 11:59:49;;;;;;;21.45;14.30;;;;;;;;;;5075457;28;20027;-78
2021/12/21 12:02:25;;;;;;;27.67;15.93;;;;;;;;;;5075197;28;20020;-78
2021/12/21 12:04:55;;;;;;;27.60;16.77;;;;;;;;;;5076561;28;20031;-77
2021/12/21 12:07:20;;;;;;;29.98;16.75;;;;;;;;;;5076861;28;20027;-77
2021/12/21 12:09:46;;;;;;;34.33;20.83;;;;;;;;;;5075121;28;20020;-77
2021/12/21 12:12:13;;;;;;;22.10;13.23;;;;;;;;;;5075655;28;20016;-77
2021/12/21 12:14:39;;;;;;;22.42;15.27;;;;;;;;;;5076600;28;20020;-78
2021/12/21 12:17:18;;;;;;;12.93;9.07;;;;;;;;;;5075232;28;20020;-76
2021/12/21 12:19:55;;;;;;;17.33;12.05;;;;;;;;;;5076365;28;20459;-77
2021/12/21 12:22:31;;;;;;;19.73;11.77;;;;;;;;;;5076185;28;20031;-78
2021/12/21 12:24:57;;;;;;;14.35;9.55;;;;;;;;;;5077115;28;20027;-78
2021/12/21 12:27:27;;;;;;;20.02;13.30;;;;;;;;;;5075827;28;20108;-78
2021/12/21 12:29:52;;;;;;;;;;;;;;;;;;5074792;28;20340;-77
2021/12/21 12:32:30;;;;;;;17.43;10.63;;;;;;;;;;5074879;28;19910;-78
2021/12/21 12:35:21;;;;;;;10.10;6.47;;;;;;;;;;5074419;28;20240;-79
2021/12/21 12:37:51;;;;;;;14.02;8.05;;;;;;;;;;5071925;28;20036;-77
2021/12/21 12:40:18;;;;;;;;;;;;;;;;;;5074694;28;20088;-78
2021/12/21 12:42:52;;;;;;;18.73;9.73;;;;;;;;;;5074316;28;19942;-78
2021/12/21 12:45:20;;;;;;;26.10;15.82;;;;;;;;;;5074317;28;20020;-76
2021/12/21 12:47:47;;;;;;;22.58;13.93;;;;;;;;;;5074816;28;20435;-77
2021/12/21 12:50:15;;;;;;;16.70;11.00;;;;;;;;;;5076204;28;20636;-78
2021/12/21 12:52:48;;;;;;;32.55;19.20;;;;;;;;;;5076016;28;20062;-77
2021/12/21 12:55:13;;;;;;;29.67;17.05;;;;;;;;;;5075126;28;20016;-76
2021/12/21 12:57:40;;;;;;;22.17;13.10;;;;;;;;;;5075529;28;20046;-78
2021/12/21 13:00:24;;;;;;;23.48;14.27;;;;;;;;;;5075633;28;20444;-77
2021/12/21 13:02:53;;;;;;;27.10;14.50;;;;;;;;;;5073735;28;20020;-76
2021/12/21 13:05:18;;;;;;;14.48;9.88;;;;;;;;;;5074459;28;20020;-77
2021/12/21 13:07:44;;;;;;;33.25;19.90;;;;;;;;;;5073894;28;20085;-78
2021/12/21 13:10:10;;;;;;;29.88;17.92;;;;;;;;;;5075189;28;20031;-77
2021/12/21 13:12:36;;;;;;;27.75;16.08;;;;;;;;;;5073842;28;20020;-79
2021/12/21 13:15:02;;;;;;;24.88;14.90;;;;;;;;;;5073662;28;20115;-76
2021/12/21 13:17:28;;;;;;;30.77;17.67;;;;;;;;;;5074196;28;20054;-77
2021/12/21 13:19:53;;;;;;;34.25;19.40;;;;;;;;;;5075279;28;20043;-77
2021/12/21 13:22:26;;;;;;;28.50;15.70;;;;;;;;;;5073324;28;20077;-76
2021/12/21 13:24:52;;;;;;;34.63;21.42;;;;;;;;;;5075500;28;20023;-76
2021/12/21 13:27:20;;;;;;;20.65;12.15;;;;;;;;;;5074848;28;20038;-78
2021/12/21 13:29:46;;;;;;;55.38;28.65;;;;;;;;;;5073823;28;20026;-77
2021/12/21 13:32:14;;;;;;;38.20;21.25;;;;;;;;;;5073845;28;20063;-77
2021/12/21 13:34:41;;;;;;;45.03;24.33;;;;;;;;;;5073683;28;20477;-78
2021/12/21 13:37:08;;;;;;;29.25;17.50;;;;;;;;;;5075394;28;20044;-78
2021/12/21 13:39:35;;;;;;;38.97;19.15;;;;;;;;;;5075264;28;20372;-77
2021/12/21 13:42:02;;;;;;;20.30;13.20;;;;;;;;;;5076284;28;20719;-76
2021/12/21 13:44:27;;;;;;;28.30;15.98;;;;;;;;;;5074783;28;20047;-77
2021/12/21 13:46:53;;;;;;;32.33;15.30;;;;;;;;;;5075013;28;20530;-77
2021/12/21 13:49:19;;;;;;;31.30;18.20;;;;;;;;;;5073283;28;20028;-77
2021/12/21 13:51:52;;;;;;;32.22;19.63;;;;;;;;;;5074499;28;20046;-77
2021/12/21 13:54:18;;;;;;;24.45;16.17;;;;;;;;;;5073409;28;20050;-78
2021/12/21 13:56:43;;;;;;;27.58;18.08;;;;;;;;;;5074497;28;20051;-78
2021/12/21 13:59:12;;;;;;;17.23;13.38;;;;;;;;;;5077119;28;20393;-78
2021/12/21 14:01:38;;;;;;;13.82;10.23;;;;;;;;;;5077105;28;20023;-77
2021/12/21 14:04:07;;;;;;;12.40;9.70;;;;;;;;;;5078335;28;20107;-77
2021/12/21 14:06:34;;;;;;;27.52;16.33;;;;;;;;;;5080116;28;20057;-78
2021/12/21 14:09:01;;;;;;;27.13;17.23;;;;;;;;;;5077572;28;20016;-77
2021/12/21 14:11:36;;;;;;;30.77;19.98;;;;;;;;;;5077318;28;20046;-78
2021/12/21 14:14:09;;;;;;;50.13;29.45;;;;;;;;;;5077336;28;20024;-77
2021/12/21 14:16:38;;;;;;;65.85;37.15;;;;;;;;;;5077396;28;20517;-78
2021/12/21 14:19:05;;;;;;;105.83;54.73;;;;;;;;;;5076923;28;20016;-78
2021/12/21 14:21:36;;;;;;;65.03;31.15;;;;;;;;;;5077312;28;20107;-78
2021/12/21 14:24:03;;;;;;;38.35;20.55;;;;;;;;;;5079247;28;20020;-78
2021/12/21 14:26:47;;;;;;;33.88;18.90;;;;;;;;;;5076875;28;20043;-78
2021/12/21 14:29:13;;;;;;;23.77;15.35;;;;;;;;;;5079700;28;20089;-78
2021/12/21 14:31:45;;;;;;;30.80;19.70;;;;;;;;;;5076615;28;20084;-77
2021/12/21 14:34:11;;;;;;;31.15;18.33;;;;;;;;;;5075671;28;20112;-78
2021/12/21 14:36:38;;;;;;;29.25;16.80;;;;;;;;;;5068795;28;20056;-77
2021/12/21 14:39:05;;;;;;;34.25;19.73;;;;;;;;;;5057761;28;20373;-78
2021/12/21 14:41:32;;;;;;;43.72;20.85;;;;;;;;;;5058026;28;20119;-78
2021/12/21 14:44:00;;;;;;;62.30;28.77;;;;;;;;;;5076895;28;20341;-78
2021/12/21 14:46:26;;;;;;;97.50;43.83;;;;;;;;;;5065013;28;20024;-78
2021/12/21 14:48:58;;;;;;;46.40;23.63;;;;;;;;;;5060706;28;20021;-77
2021/12/21 14:51:23;;;;;;;51.95;26.83;;;;;;;;;;5068191;28;20012;-79
2021/12/21 14:54:04;;;;;;;63.08;32.03;;;;;;;;;;5077443;28;20497;-77
2021/12/21 14:56:34;;;;;;;84.93;43.83;;;;;;;;;;5076640;28;20012;-80
2021/12/21 14:59:00;;;;;;;79.95;43.20;;;;;;;;;;5073719;28;20043;-79
2021/12/21 15:01:41;;;;;;;77.40;42.67;;;;;;;;;;5065131;28;20026;-78
2021/12/21 15:04:20;;;;;;;88.72;47.83;;;;;;;;;;5055838;28;20497;-79
2021/12/21 15:06:46;;;;;;;90.82;48.58;;;;;;;;;;5058033;28;20021;-77
2021/12/21 15:09:11;;;;;;;77.10;43.58;;;;;;;;;;5055260;28;20020;-78
2021/12/21 15:11:42;;;;;;;84.75;48.55;;;;;;;;;;5057912;28;20012;-79
2021/12/21 15:14:07;;;;;;;88.55;48.97;;;;;;;;;;5055260;28;20341;-78
2021/12/21 15:16:33;;;;;;;71.40;42.75;;;;;;;;;;5055965;28;20024;-77
2021/12/21 15:18:58;;;;;;;58.20;33.22;;;;;;;;;;5057340;28;20412;-78
2021/12/21 15:21:24;;;;;;;65.05;38.05;;;;;;;;;;5055326;28;20029;-78
2021/12/21 15:23:49;;;;;;;61.55;37.42;;;;;;;;;;5056699;28;20124;-78
2021/12/21 15:26:14;;;;;;;95.38;51.63;;;;;;;;;;5055576;28;20021;-79
2021/12/21 15:28:40;;;;;;;54.97;34.78;;;;;;;;;;5056536;28;20363;-78
2021/12/21 15:31:05;;;;;;;72.90;43.58;;;;;;;;;;5055238;28;20020;-78
2021/12/21 15:33:31;;;;;;;74.50;43.78;;;;;;;;;;5055908;28;20041;-78
2021/12/21 15:35:56;;;;;;;75.20;41.35;;;;;;;;;;5056672;28;20009;-79